createdAt,value
2023-03-08T00:02:42.438Z,16.73
2023-03-08T00:05:44.303Z,16.74
2023-03-08T00:08:48.309Z,16.75
2023-03-08T00:11:49.826Z,16.73
2023-03-08T00:14:51.698Z,16.71
2023-03-08T00:17:53.195Z,16.72
2023-03-08T00:21:12.715Z,16.74
2023-03-08T00:24:16.616Z,16.70
2023-03-08T00:27:18.081Z,16.69
2023-03-08T00:30:19.797Z,16.68
2023-03-08T00:33:22.165Z,16.67
2023-03-08T00:36:23.711Z,16.68
2023-03-08T00:39:25.214Z,16.68
2023-03-08T00:42:26.843Z,16.66
2023-03-08T00:45:28.347Z,16.65
2023-03-08T00:48:29.895Z,16.64
2023-03-08T00:51:31.389Z,16.64
2023-03-08T00:54:33.172Z,16.63
2023-03-08T00:57:34.714Z,16.63
2023-03-08T01:00:36.231Z,16.63
2023-03-08T01:03:37.768Z,16.64
2023-03-08T01:06:40.086Z,16.63
2023-03-08T01:09:44.948Z,16.62
2023-03-08T01:12:48.552Z,16.64
2023-03-08T01:15:50.201Z,16.64
2023-03-08T01:18:52.633Z,16.65
2023-03-08T01:21:54.741Z,16.64
2023-03-08T01:24:56.315Z,16.64
2023-03-08T01:27:57.830Z,16.67
2023-03-08T01:31:03.190Z,16.64
2023-03-08T01:34:04.681Z,16.62
2023-03-08T01:37:06.584Z,16.61
2023-03-08T01:40:10.027Z,16.59
2023-03-08T01:43:29.365Z,16.60
2023-03-08T01:46:35.669Z,16.57
2023-03-08T01:49:43.199Z,16.56
2023-03-08T01:52:48.518Z,16.57
2023-03-08T01:55:50.053Z,16.55
2023-03-08T01:58:52.548Z,16.56
2023-03-08T02:01:54.026Z,16.56
2023-03-08T02:04:56.551Z,16.56
2023-03-08T02:07:59.260Z,16.54
2023-03-08T02:11:05.563Z,16.56
2023-03-08T02:14:08.485Z,16.56
2023-03-08T02:17:12.013Z,16.56
2023-03-08T02:20:32.849Z,16.57
2023-03-08T02:23:40.721Z,16.55
2023-03-08T02:26:42.298Z,16.52
2023-03-08T02:29:44.322Z,16.51
2023-03-08T02:32:45.938Z,16.49
2023-03-08T02:35:47.615Z,16.48
2023-03-08T02:38:49.144Z,16.49
2023-03-08T02:41:50.653Z,16.49
2023-03-08T02:44:52.162Z,16.48
2023-03-08T02:47:53.661Z,16.49
2023-03-08T02:50:55.292Z,16.48
2023-03-08T02:53:56.817Z,16.49
2023-03-08T02:56:58.447Z,16.49
2023-03-08T03:00:00.046Z,16.47
2023-03-08T03:03:02.975Z,16.48
2023-03-08T03:06:04.848Z,16.48
2023-03-08T03:09:10.093Z,16.48
2023-03-08T03:12:12.257Z,16.45
2023-03-08T03:15:15.782Z,16.45
2023-03-08T03:18:19.625Z,16.44
2023-03-08T03:21:21.857Z,16.44
2023-03-08T03:24:23.376Z,16.42
2023-03-08T03:27:28.609Z,16.42
2023-03-08T03:30:31.225Z,16.42
2023-03-08T03:33:35.103Z,16.43
2023-03-08T03:36:37.205Z,16.43
2023-03-08T03:39:39.855Z,16.43
2023-03-08T03:42:44.252Z,16.43
2023-03-08T03:45:56.018Z,16.44
2023-03-08T03:48:58.624Z,16.44
2023-03-08T03:52:05.744Z,16.43
2023-03-08T03:55:14.362Z,16.43
2023-03-08T03:58:17.082Z,16.43
2023-03-08T04:01:28.902Z,16.42
2023-03-08T04:04:37.056Z,16.39
2023-03-08T04:07:39.707Z,16.38
2023-03-08T04:10:42.556Z,16.39
2023-03-08T04:13:44.563Z,16.38
2023-03-08T04:16:46.408Z,16.39
2023-03-08T04:19:57.256Z,16.39
2023-03-08T04:22:59.060Z,16.41
2023-03-08T04:26:09.834Z,16.43
2023-03-08T04:29:12.436Z,16.43
2023-03-08T04:32:14.962Z,16.47
2023-03-08T04:35:24.486Z,16.48
2023-03-08T04:38:28.479Z,16.49
2023-03-08T04:41:32.362Z,16.50
2023-03-08T04:44:57.044Z,16.51
2023-03-08T04:47:59.229Z,16.53
2023-03-08T04:51:03.658Z,16.53
2023-03-08T04:54:05.313Z,16.55
2023-03-08T04:57:10.299Z,16.56
2023-03-08T05:00:13.744Z,16.56
2023-03-08T05:03:17.594Z,16.56
2023-03-08T05:06:21.067Z,16.56
2023-03-08T05:09:23.486Z,16.55
2023-03-08T05:12:26.515Z,16.55
2023-03-08T05:15:32.243Z,16.55
2023-03-08T05:18:34.175Z,16.55
2023-03-08T05:21:35.783Z,16.52
2023-03-08T05:24:40.999Z,16.53
2023-03-08T05:27:45.034Z,16.52
2023-03-08T05:30:47.848Z,16.50
2023-03-08T05:33:52.312Z,16.50
2023-03-08T05:37:01.570Z,16.47
2023-03-08T05:40:06.350Z,16.46
2023-03-08T05:43:10.906Z,16.45
2023-03-08T05:46:18.631Z,16.46
2023-03-08T05:49:20.718Z,16.42
2023-03-08T05:52:22.315Z,16.41
2023-03-08T05:55:24.640Z,16.39
2023-03-08T05:58:26.227Z,16.38
2023-03-08T06:01:28.424Z,16.38
2023-03-08T06:04:36.461Z,16.39
2023-03-08T06:07:38.198Z,16.39
2023-03-08T06:10:44.489Z,16.41
2023-03-08T06:13:46.098Z,16.41
2023-03-08T06:16:48.813Z,16.43
2023-03-08T06:19:51.886Z,16.44
2023-03-08T06:22:53.892Z,16.46
2023-03-08T06:25:56.095Z,16.47
2023-03-08T06:28:57.787Z,16.48
2023-03-08T06:32:03.225Z,16.49
2023-03-08T06:35:07.137Z,16.50
2023-03-08T06:38:12.076Z,16.50
2023-03-08T06:41:16.245Z,16.51
2023-03-08T06:44:19.425Z,16.50
2023-03-08T06:47:21.068Z,16.50
2023-03-08T06:50:22.825Z,16.51
2023-03-08T06:53:25.233Z,16.51
2023-03-08T06:56:31.064Z,16.51
2023-03-08T06:59:32.656Z,16.51
2023-03-08T07:02:34.131Z,16.52
2023-03-08T07:05:35.639Z,16.50
2023-03-08T07:08:37.941Z,16.51
2023-03-08T07:11:39.959Z,16.50
2023-03-08T07:14:41.425Z,16.50
2023-03-08T07:17:43.412Z,16.50
2023-03-08T07:20:45.462Z,16.48
2023-03-08T07:23:46.944Z,16.46
2023-03-08T07:26:48.405Z,16.44
2023-03-08T07:29:50.469Z,16.44
2023-03-08T07:32:55.423Z,16.44
2023-03-08T07:36:01.487Z,16.43
2023-03-08T07:39:03.153Z,16.40
2023-03-08T07:42:05.051Z,16.40
2023-03-08T07:45:07.431Z,16.40
2023-03-08T07:48:09.032Z,16.40
2023-03-08T07:51:13.244Z,16.40
2023-03-08T07:54:17.326Z,16.43
2023-03-08T07:57:18.862Z,16.42
2023-03-08T08:00:20.788Z,16.43
2023-03-08T08:03:22.325Z,16.42
2023-03-08T08:06:23.952Z,16.40
2023-03-08T08:09:25.498Z,16.41
2023-03-08T08:12:27.044Z,16.41
2023-03-08T08:15:30.794Z,16.40
2023-03-08T08:18:32.460Z,16.38
2023-03-08T08:21:33.914Z,16.30
2023-03-08T08:24:35.743Z,16.05
2023-03-08T08:27:37.302Z,15.78
2023-03-08T08:30:38.783Z,15.62
2023-03-08T08:33:40.342Z,15.39
2023-03-08T08:36:41.889Z,15.19
2023-03-08T08:39:43.367Z,15.11
2023-03-08T08:42:44.857Z,14.96
2023-03-08T08:45:48.954Z,14.84
2023-03-08T08:48:50.519Z,14.69
2023-03-08T08:51:53.276Z,14.65
2023-03-08T08:54:54.952Z,14.52
2023-03-08T08:57:56.484Z,14.36
2023-03-08T09:00:57.953Z,14.45
2023-03-08T09:04:00.333Z,14.65
2023-03-08T09:07:01.846Z,14.84
2023-03-08T09:10:03.457Z,14.98
2023-03-08T09:13:06.120Z,15.11
2023-03-08T09:16:19.834Z,15.23
2023-03-08T09:19:21.438Z,15.32
2023-03-08T09:22:22.997Z,15.39
2023-03-08T09:25:24.640Z,15.47
2023-03-08T09:28:26.167Z,15.53
2023-03-08T09:31:27.797Z,15.56
2023-03-08T09:34:29.413Z,15.63
2023-03-08T09:37:31.482Z,15.69
2023-03-08T09:40:46.328Z,15.73
2023-03-08T09:44:16.220Z,15.78
2023-03-08T09:47:22.570Z,15.81
2023-03-08T09:50:39.304Z,15.84
2023-03-08T09:53:40.784Z,15.85
2023-03-08T09:56:51.326Z,15.89
2023-03-08T09:59:57.198Z,15.92
2023-03-08T10:03:37.227Z,15.98
2023-03-08T10:06:53.294Z,16.02
2023-03-08T10:10:05.667Z,16.09
2023-03-08T10:13:32.870Z,16.14
2023-03-08T10:16:43.623Z,16.16
2023-03-08T10:19:57.548Z,16.19
2023-03-08T10:23:12.464Z,16.21
2023-03-08T10:26:15.410Z,16.23
2023-03-08T10:29:16.890Z,16.26
2023-03-08T10:32:18.699Z,16.26
2023-03-08T10:35:32.288Z,16.29
2023-03-08T10:38:36.303Z,16.29
2023-03-08T10:41:43.708Z,16.33
2023-03-08T10:44:53.991Z,16.34
2023-03-08T10:48:02.364Z,16.37
2023-03-08T10:51:07.105Z,16.38
2023-03-08T10:54:15.124Z,16.40
2023-03-08T10:57:20.015Z,16.39
2023-03-08T11:00:42.843Z,16.43
2023-03-08T11:03:44.576Z,16.43
2023-03-08T11:06:46.292Z,16.44
2023-03-08T11:09:49.312Z,16.47
2023-03-08T11:13:01.669Z,16.49
2023-03-08T11:16:22.629Z,16.51
2023-03-08T11:19:34.886Z,16.52
2023-03-08T11:22:54.991Z,16.50
2023-03-08T11:26:20.704Z,16.52
2023-03-08T11:29:35.868Z,16.51
2023-03-08T11:33:09.790Z,16.51
2023-03-08T11:36:33.254Z,16.50
2023-03-08T11:39:49.939Z,16.53
2023-03-08T11:43:13.768Z,16.57
2023-03-08T11:46:42.491Z,16.60
2023-03-08T11:49:43.960Z,16.57
2023-03-08T11:52:51.313Z,16.59
2023-03-08T11:56:01.937Z,16.56
2023-03-08T11:59:10.889Z,16.52
2023-03-08T12:02:20.690Z,16.49
2023-03-08T12:05:36.184Z,16.48
2023-03-08T12:08:48.008Z,16.44
2023-03-08T12:11:58.549Z,16.43
2023-03-08T12:15:24.617Z,16.40
2023-03-08T12:18:31.999Z,16.38
2023-03-08T12:21:41.668Z,16.37
2023-03-08T12:24:45.911Z,16.34
2023-03-08T12:27:59.854Z,16.33
2023-03-08T12:31:35.500Z,16.30
2023-03-08T12:34:40.205Z,16.27
2023-03-08T12:37:41.806Z,16.25
2023-03-08T12:40:49.271Z,16.22
2023-03-08T12:44:23.316Z,16.22
2023-03-08T12:47:25.186Z,16.20
2023-03-08T12:50:27.159Z,16.20
2023-03-08T12:53:46.051Z,16.20
2023-03-08T12:56:54.204Z,16.19
2023-03-08T12:59:59.554Z,16.17
2023-03-08T13:03:03.282Z,16.15
2023-03-08T13:06:22.869Z,16.15
2023-03-08T13:09:32.917Z,16.14
2023-03-08T13:12:41.940Z,16.14
2023-03-08T13:15:43.527Z,16.11
2023-03-08T13:18:48.554Z,16.12
2023-03-08T13:22:16.902Z,16.13
2023-03-08T13:25:51.710Z,16.12
2023-03-08T13:28:53.590Z,16.05
2023-03-08T13:31:56.127Z,16.03
2023-03-08T13:35:03.057Z,16.05
2023-03-08T13:38:04.556Z,16.05
2023-03-08T13:41:06.058Z,16.08
2023-03-08T13:44:13.308Z,16.11
2023-03-08T13:47:34.887Z,16.14
2023-03-08T13:50:41.758Z,16.15
2023-03-08T13:53:43.613Z,16.18
2023-03-08T13:56:45.221Z,16.21
2023-03-08T13:59:52.245Z,16.25
2023-03-08T14:02:53.938Z,16.25
2023-03-08T14:05:55.541Z,16.29
2023-03-08T14:09:00.474Z,16.33
2023-03-08T14:12:07.190Z,16.36
2023-03-08T14:15:18.502Z,16.38
2023-03-08T14:18:36.673Z,16.39
2023-03-08T14:21:38.635Z,16.40
2023-03-08T14:24:42.212Z,16.41
2023-03-08T14:27:45.237Z,16.43
2023-03-08T14:30:48.812Z,16.46
2023-03-08T14:34:02.482Z,16.47
2023-03-08T14:37:26.018Z,16.47
2023-03-08T14:40:36.708Z,16.48
2023-03-08T14:43:38.313Z,16.45
2023-03-08T14:46:39.875Z,16.47
2023-03-08T14:49:41.386Z,16.49
2023-03-08T14:52:49.269Z,16.50
2023-03-08T14:55:50.710Z,16.49
2023-03-08T14:58:53.745Z,16.51
2023-03-08T15:01:55.449Z,16.53
2023-03-08T15:04:57.019Z,16.56
2023-03-08T15:08:00.364Z,16.56
2023-03-08T15:11:01.885Z,16.57
2023-03-08T15:14:03.436Z,16.57
2023-03-08T15:17:04.960Z,16.59
2023-03-08T15:20:06.872Z,16.58
2023-03-08T15:23:08.820Z,16.56
2023-03-08T15:26:17.410Z,16.57
2023-03-08T15:29:29.568Z,16.55
2023-03-08T15:32:31.078Z,16.55
2023-03-08T15:35:32.801Z,16.58
2023-03-08T15:38:34.421Z,16.57
2023-03-08T15:41:35.900Z,16.56
2023-03-08T15:44:37.405Z,16.55
2023-03-08T15:47:39.088Z,16.57
2023-03-08T15:50:41.246Z,16.58
2023-03-08T15:53:42.750Z,16.59
2023-03-08T15:56:44.240Z,16.61
2023-03-08T15:59:45.955Z,16.64
2023-03-08T16:02:47.835Z,16.66
2023-03-08T16:05:49.341Z,16.68
2023-03-08T16:08:50.925Z,16.73
2023-03-08T16:11:52.370Z,16.73
2023-03-08T16:15:00.106Z,16.74
2023-03-08T16:18:01.631Z,16.74
2023-03-08T16:21:08.785Z,16.75
2023-03-08T16:24:11.072Z,16.73
2023-03-08T16:27:12.607Z,16.72
2023-03-08T16:30:14.350Z,16.71
2023-03-08T16:33:17.963Z,16.69
2023-03-08T16:36:19.734Z,16.66
2023-03-08T16:39:21.627Z,16.67
2023-03-08T16:42:23.188Z,16.65
2023-03-08T16:45:24.927Z,16.64
2023-03-08T16:48:27.836Z,16.61
2023-03-08T16:51:30.630Z,16.59
2023-03-08T16:54:32.193Z,16.56
2023-03-08T16:57:33.711Z,16.53
2023-03-08T17:00:35.165Z,16.53
2023-03-08T17:03:38.463Z,16.50
2023-03-08T17:06:43.893Z,16.49
2023-03-08T17:09:46.281Z,16.47
2023-03-08T17:12:47.861Z,16.47
2023-03-08T17:15:49.419Z,16.46
2023-03-08T17:18:51.610Z,16.46
2023-03-08T17:21:53.391Z,16.45
2023-03-08T17:24:54.912Z,16.44
2023-03-08T17:27:56.509Z,16.44
2023-03-08T17:30:58.866Z,16.44
2023-03-08T17:34:00.350Z,16.45
2023-03-08T17:37:01.846Z,16.44
2023-03-08T17:40:03.768Z,16.44
2023-03-08T17:43:05.335Z,16.44
2023-03-08T17:46:12.226Z,16.46
2023-03-08T17:49:13.954Z,16.46
2023-03-08T17:52:15.783Z,16.47
2023-03-08T17:55:17.364Z,16.47
2023-03-08T17:58:19.818Z,16.46
2023-03-08T18:01:24.143Z,16.48
2023-03-08T18:04:26.113Z,16.46
2023-03-08T18:07:29.006Z,16.46
2023-03-08T18:10:30.601Z,16.45
2023-03-08T18:13:32.047Z,16.45
2023-03-08T18:16:34.531Z,16.46
2023-03-08T18:19:36.083Z,16.46
2023-03-08T18:22:38.390Z,16.45
2023-03-08T18:25:40.533Z,16.46
2023-03-08T18:28:42.131Z,16.45
2023-03-08T18:31:43.738Z,16.45
2023-03-08T18:34:45.781Z,16.45
2023-03-08T18:37:47.331Z,16.44
2023-03-08T18:40:48.804Z,16.45
2023-03-08T18:43:51.214Z,16.46
2023-03-08T18:46:52.980Z,16.45
2023-03-08T18:49:54.526Z,16.45
2023-03-08T18:52:56.559Z,16.46
2023-03-08T18:56:00.666Z,16.46
2023-03-08T18:59:05.742Z,16.47
2023-03-08T19:02:07.419Z,16.49
2023-03-08T19:05:09.185Z,16.50
2023-03-08T19:08:10.695Z,16.50
2023-03-08T19:11:18.888Z,16.52
2023-03-08T19:14:20.352Z,16.51
2023-03-08T19:17:21.799Z,16.52
2023-03-08T19:20:24.742Z,16.54
2023-03-08T19:23:26.304Z,16.54
2023-03-08T19:26:36.139Z,16.53
2023-03-08T19:29:37.663Z,16.52
2023-03-08T19:32:40.988Z,16.54
2023-03-08T19:35:43.698Z,16.54
2023-03-08T19:38:45.213Z,16.53
2023-03-08T19:41:49.137Z,16.55
2023-03-08T19:44:52.569Z,16.54
2023-03-08T19:47:54.030Z,16.53
2023-03-08T19:50:55.870Z,16.54
2023-03-08T19:53:57.430Z,16.53
2023-03-08T19:56:59.741Z,16.53
2023-03-08T20:00:01.371Z,16.53
2023-03-08T20:03:15.489Z,16.55
2023-03-08T20:06:26.076Z,16.57
2023-03-08T20:09:27.870Z,16.53
2023-03-08T20:12:29.346Z,16.53
2023-03-08T20:15:32.081Z,16.55
2023-03-08T20:18:33.749Z,16.55
2023-03-08T20:21:35.290Z,16.53
2023-03-08T20:24:36.814Z,16.53
2023-03-08T20:27:40.300Z,16.53
2023-03-08T20:30:41.803Z,16.52
2023-03-08T20:33:44.343Z,16.53
2023-03-08T20:36:47.320Z,16.52
2023-03-08T20:39:52.915Z,16.53
2023-03-08T20:42:57.808Z,16.52
2023-03-08T20:46:05.721Z,16.51
2023-03-08T20:49:07.331Z,16.50
2023-03-08T20:52:09.671Z,16.52
2023-03-08T20:55:11.339Z,16.50
2023-03-08T20:58:12.800Z,16.51
2023-03-08T21:01:20.769Z,16.52
2023-03-08T21:04:23.345Z,16.51
2023-03-08T21:07:24.820Z,16.51
2023-03-08T21:10:26.364Z,16.53
2023-03-08T21:13:27.863Z,16.53
2023-03-08T21:16:30.477Z,16.53
2023-03-08T21:19:32.034Z,16.52
2023-03-08T21:22:33.553Z,16.55
2023-03-08T21:25:35.741Z,16.56
2023-03-08T21:28:37.225Z,16.56
2023-03-08T21:31:44.717Z,16.57
2023-03-08T21:34:46.189Z,16.57
2023-03-08T21:37:47.723Z,16.58
2023-03-08T21:40:49.193Z,16.59
2023-03-08T21:43:51.091Z,16.60
2023-03-08T21:46:53.281Z,16.61
2023-03-08T21:49:54.874Z,16.62
2023-03-08T21:52:56.340Z,16.62
2023-03-08T21:55:57.884Z,16.64
2023-03-08T21:58:59.331Z,16.65
2023-03-08T22:02:00.878Z,16.65
2023-03-08T22:05:03.960Z,16.66
2023-03-08T22:08:05.445Z,16.65
2023-03-08T22:11:06.990Z,16.65
2023-03-08T22:14:08.512Z,16.65
2023-03-08T22:17:10.003Z,16.62
2023-03-08T22:20:12.266Z,16.61
2023-03-08T22:23:13.828Z,16.59
2023-03-08T22:26:15.375Z,16.56
2023-03-08T22:29:16.844Z,16.52
2023-03-08T22:32:18.714Z,16.52
2023-03-08T22:35:21.408Z,16.49
2023-03-08T22:38:22.930Z,16.46
2023-03-08T22:41:26.941Z,16.46
2023-03-08T22:44:28.449Z,16.46
2023-03-08T22:47:30.029Z,16.45
2023-03-08T22:50:31.504Z,16.43
2023-03-08T22:53:33.050Z,16.42
2023-03-08T22:56:35.127Z,16.43
2023-03-08T22:59:36.754Z,16.42
2023-03-08T23:02:38.208Z,16.42
2023-03-08T23:05:39.739Z,16.41
2023-03-08T23:08:41.336Z,16.40
2023-03-08T23:11:43.185Z,16.38
2023-03-08T23:14:45.408Z,16.37
2023-03-08T23:17:47.012Z,16.38
2023-03-08T23:20:48.532Z,16.35
2023-03-08T23:23:50.328Z,16.36
2023-03-08T23:26:54.081Z,16.36
2023-03-08T23:29:55.555Z,16.35
2023-03-08T23:32:57.020Z,16.35
2023-03-08T23:35:58.622Z,16.35
2023-03-08T23:39:02.517Z,16.36
2023-03-08T23:42:05.830Z,16.35
2023-03-08T23:45:08.030Z,16.35
2023-03-08T23:48:09.979Z,16.35
2023-03-08T23:51:14.436Z,16.35
2023-03-08T23:54:15.906Z,16.36
2023-03-08T23:57:17.422Z,16.35
